Aérodrome :
LOGIN :

S'inscrire | Disclaimer

   EN    FR    IT 

 










Légende :    VFR   VFR Marginal   IFR   IFR Intensif   IFR Très Intensif
Visi : 
Plafond : 
>= 8 km
>= 3000ft
5 à 8 km
1000 à 3000 ft
1500m à 5 km
500 à 1000 ft
800 à 1500m
200 à 500 ft
< 800m
< 200 ft
Symboles :   Orages  Brouillard  Fortes neiges  Fortes précipitations  Vent > 20 kt
SIGMETs :   Divers  Orages  Givrage  Turbulence  Onde Orograph.  Cendres Volcan.







- Altitude de l'aérodrome : 2096 ft
- Code IATA : AUR
- Voir les cartes d'approche


LFLW - Aurillac

DERNIER METAR :
  • 202330Z AUTO VRB02KT 9999 SCT047 OVC060 15/13 Q1017

METARs EXPIRÉS :
  • 202300Z AUTO 22003KT 9999 FEW037 SCT094 15/13 Q1017
  • 202230Z AUTO 23002KT 9999 FEW040 BKN064 16/13 Q1017
  • 202200Z AUTO 23002KT 9999 FEW039 BKN056 BKN068 16/13 Q1017
  • 202130Z AUTO 00000KT CAVOK 16/13 Q1017
  • 202100Z AUTO VRB03KT CAVOK 16/13 Q1017

TAF TAF LFLW
Valide du 20 à 15h jusqu'au 21 à 00h UTC


201400Z 2015/2024 30007KT 9999 SCT045 BKN070
Pas de NOTAMs connus pour ce terrain.
1 SIGMET publié pour la FIR Bordeaux (LFBB) :
 
Orages noyés dans la masse
LFBB SIGMET 6 VALID 202300/210300 LFPW
LFBB BORDEAUX FIR/UIR EMBD TS FCST WI N4230 E00045 - N4245 W00045 - N4300 W00030 - N4245 E00100 - N4230 E00045 TOP FL310 MOV NE 10KT WKN=



MET'MAP, la Météo Aéronautique d'un coup d'oeil ! - Copyright ORBIFLY Décembre 2007 - Disclaimer

ORBIFLY MET'MAP TEAM :

Programmation & Développement : Alexandra Zaïnal
Conception & Développement : Baudouin d'Aumeries
Co-Programmation & Développement : Marc-Olivier Méhu
Soutien technique & logistique : Manuel Goepfert

Contact : metmap@orbifly.com




SOURCES & CREDITS :

   NOAA